sensor_id;sensor_type;location;lat;lon;timestamp;pressure;altitude;pressure_sealevel;temperature;humidity
7335;BME280;3708;42.632;23.378;2023-02-02T00:01:15;94337.91;;;7.20;40.12
7335;BME280;3708;42.632;23.378;2023-02-02T00:03:41;94332.06;;;6.38;41.21
7335;BME280;3708;42.632;23.378;2023-02-02T00:06:08;94336.97;;;6.39;40.65
7335;BME280;3708;42.632;23.378;2023-02-02T00:08:35;94335.84;;;6.94;40.17
7335;BME280;3708;42.632;23.378;2023-02-02T00:11:04;94356.16;;;6.57;40.69
7335;BME280;3708;42.632;23.378;2023-02-02T00:13:31;94334.91;;;6.90;39.97
7335;BME280;3708;42.632;23.378;2023-02-02T00:15:58;94336.44;;;7.05;39.54
7335;BME280;3708;42.632;23.378;2023-02-02T00:18:25;94322.81;;;6.59;41.67
7335;BME280;3708;42.632;23.378;2023-02-02T00:20:52;94326.28;;;6.54;40.98
7335;BME280;3708;42.632;23.378;2023-02-02T00:23:19;94326.66;;;7.11;39.79
7335;BME280;3708;42.632;23.378;2023-02-02T00:25:48;94326.56;;;7.16;39.66
7335;BME280;3708;42.632;23.378;2023-02-02T00:28:17;94326.94;;;7.09;39.89
7335;BME280;3708;42.632;23.378;2023-02-02T00:30:44;94325.66;;;7.64;39.00
7335;BME280;3708;42.632;23.378;2023-02-02T00:33:11;94332.94;;;7.76;38.45
7335;BME280;3708;42.632;23.378;2023-02-02T00:35:40;94339.31;;;7.70;38.88
7335;BME280;3708;42.632;23.378;2023-02-02T00:38:07;94334.31;;;7.51;38.62
7335;BME280;3708;42.632;23.378;2023-02-02T00:40:34;94341.69;;;8.11;38.49
7335;BME280;3708;42.632;23.378;2023-02-02T00:43:01;94344.03;;;8.12;37.95
7335;BME280;3708;42.632;23.378;2023-02-02T00:45:29;94344.06;;;7.90;38.32
7335;BME280;3708;42.632;23.378;2023-02-02T00:47:55;94360.66;;;7.28;39.97
7335;BME280;3708;42.632;23.378;2023-02-02T00:50:22;94361.09;;;7.43;39.53
7335;BME280;3708;42.632;23.378;2023-02-02T00:52:49;94355.84;;;7.21;40.97
7335;BME280;3708;42.632;23.378;2023-02-02T00:55:16;94350.78;;;6.40;43.07
7335;BME280;3708;42.632;23.378;2023-02-02T00:57:43;94362.88;;;6.03;44.04
7335;BME280;3708;42.632;23.378;2023-02-02T01:00:12;94345.66;;;6.48;43.44
7335;BME280;3708;42.632;23.378;2023-02-02T01:02:41;94355.09;;;6.31;43.90
7335;BME280;3708;42.632;23.378;2023-02-02T01:05:08;94338.66;;;6.98;42.30
7335;BME280;3708;42.632;23.378;2023-02-02T01:07:36;94340.78;;;6.96;42.86
7335;BME280;3708;42.632;23.378;2023-02-02T01:10:04;94337.75;;;5.80;45.46
7335;BME280;3708;42.632;23.378;2023-02-02T01:12:31;94325.59;;;6.22;45.47
7335;BME280;3708;42.632;23.378;2023-02-02T01:14:58;94331.97;;;6.29;44.95
7335;BME280;3708;42.632;23.378;2023-02-02T01:17:25;94321.09;;;6.13;45.57
7335;BME280;3708;42.632;23.378;2023-02-02T01:19:53;94322.72;;;5.96;45.49
7335;BME280;3708;42.632;23.378;2023-02-02T01:22:20;94313.56;;;6.39;44.56
7335;BME280;3708;42.632;23.378;2023-02-02T01:24:46;94313.47;;;6.44;44.59
7335;BME280;3708;42.632;23.378;2023-02-02T01:27:13;94312.88;;;6.61;44.41
7335;BME280;3708;42.632;23.378;2023-02-02T01:29:40;94313.31;;;6.90;44.12
7335;BME280;3708;42.632;23.378;2023-02-02T01:32:07;94313.00;;;6.42;44.86
7335;BME280;3708;42.632;23.378;2023-02-02T01:34:35;94312.78;;;6.52;45.25
7335;BME280;3708;42.632;23.378;2023-02-02T01:37:06;94307.09;;;6.50;44.79
7335;BME280;3708;42.632;23.378;2023-02-02T01:39:33;94301.59;;;6.65;43.92
7335;BME280;3708;42.632;23.378;2023-02-02T01:42:00;94303.78;;;7.08;44.08
7335;BME280;3708;42.632;23.378;2023-02-02T01:45:05;94302.81;;;7.17;43.31
7335;BME280;3708;42.632;23.378;2023-02-02T01:47:35;94299.31;;;6.50;44.66
7335;BME280;3708;42.632;23.378;2023-02-02T01:50:04;94292.31;;;7.09;43.59
7335;BME280;3708;42.632;23.378;2023-02-02T01:52:33;94286.59;;;6.35;44.63
7335;BME280;3708;42.632;23.378;2023-02-02T01:55:03;94282.56;;;5.88;45.52
7335;BME280;3708;42.632;23.378;2023-02-02T01:57:35;94277.34;;;5.88;45.63
7335;BME280;3708;42.632;23.378;2023-02-02T02:00:06;94294.28;;;5.86;45.20
7335;BME280;3708;42.632;23.378;2023-02-02T02:02:35;94277.09;;;5.58;45.35
7335;BME280;3708;42.632;23.378;2023-02-02T02:05:04;94266.75;;;5.85;45.34
7335;BME280;3708;42.632;23.378;2023-02-02T02:07:33;94287.38;;;5.95;44.46
7335;BME280;3708;42.632;23.378;2023-02-02T02:10:00;94270.22;;;6.35;44.46
7335;BME280;3708;42.632;23.378;2023-02-02T02:12:26;94284.84;;;6.44;44.97
7335;BME280;3708;42.632;23.378;2023-02-02T02:14:53;94286.69;;;6.93;43.87
7335;BME280;3708;42.632;23.378;2023-02-02T02:17:54;94286.13;;;6.82;44.63
7335;BME280;3708;42.632;23.378;2023-02-02T02:21:08;94286.38;;;5.91;46.13
7335;BME280;3708;42.632;23.378;2023-02-02T02:33:53;94295.59;;;5.70;45.90
7335;BME280;3708;42.632;23.378;2023-02-02T02:36:28;94291.63;;;6.18;45.15
7335;BME280;3708;42.632;23.378;2023-02-02T02:39:05;94287.63;;;6.48;44.15
7335;BME280;3708;42.632;23.378;2023-02-02T02:41:40;94283.44;;;5.52;45.47
7335;BME280;3708;42.632;23.378;2023-02-02T02:44:11;94281.03;;;6.14;44.40
7335;BME280;3708;42.632;23.378;2023-02-02T02:46:41;94277.84;;;5.90;44.84
7335;BME280;3708;42.632;23.378;2023-02-02T02:49:11;94279.19;;;5.88;44.10
7335;BME280;3708;42.632;23.378;2023-02-02T02:51:44;94288.75;;;5.60;44.41
7335;BME280;3708;42.632;23.378;2023-02-02T02:54:14;94274.97;;;5.60;45.10
7335;BME280;3708;42.632;23.378;2023-02-02T02:57:10;94274.09;;;5.96;43.69
7335;BME280;3708;42.632;23.378;2023-02-02T02:59:49;94294.31;;;6.27;43.46
7335;BME280;3708;42.632;23.378;2023-02-02T03:02:34;94287.47;;;6.17;43.61
7335;BME280;3708;42.632;23.378;2023-02-02T03:05:14;94298.25;;;6.10;43.07
7335;BME280;3708;42.632;23.378;2023-02-02T03:07:47;94288.91;;;6.50;42.43
7335;BME280;3708;42.632;23.378;2023-02-02T03:10:18;94274.66;;;6.21;42.96
7335;BME280;3708;42.632;23.378;2023-02-02T03:12:49;94276.88;;;6.27;42.94
7335;BME280;3708;42.632;23.378;2023-02-02T03:15:18;94279.53;;;6.49;42.30
7335;BME280;3708;42.632;23.378;2023-02-02T03:17:46;94276.88;;;6.00;42.98
7335;BME280;3708;42.632;23.378;2023-02-02T03:20:16;94275.44;;;5.94;43.26
7335;BME280;3708;42.632;23.378;2023-02-02T03:22:43;94275.41;;;6.21;43.67
7335;BME280;3708;42.632;23.378;2023-02-02T03:25:10;94271.13;;;6.66;42.48
7335;BME280;3708;42.632;23.378;2023-02-02T03:27:37;94271.56;;;6.81;42.45
7335;BME280;3708;42.632;23.378;2023-02-02T03:30:06;94274.63;;;6.61;42.93
7335;BME280;3708;42.632;23.378;2023-02-02T03:32:34;94273.44;;;6.67;43.70
7335;BME280;3708;42.632;23.378;2023-02-02T03:35:01;94274.03;;;5.83;45.14
7335;BME280;3708;42.632;23.378;2023-02-02T03:37:29;94273.19;;;6.28;44.24
7335;BME280;3708;42.632;23.378;2023-02-02T03:39:56;94281.09;;;5.96;44.56
7335;BME280;3708;42.632;23.378;2023-02-02T03:42:23;94276.66;;;6.51;43.56
7335;BME280;3708;42.632;23.378;2023-02-02T03:44:50;94277.31;;;5.75;44.74
7335;BME280;3708;42.632;23.378;2023-02-02T03:47:17;94269.59;;;6.51;43.55
7335;BME280;3708;42.632;23.378;2023-02-02T03:49:43;94269.84;;;6.14;42.97
7335;BME280;3708;42.632;23.378;2023-02-02T03:52:10;94275.56;;;5.70;44.04
7335;BME280;3708;42.632;23.378;2023-02-02T03:54:38;94283.72;;;5.96;44.23
7335;BME280;3708;42.632;23.378;2023-02-02T03:57:05;94279.47;;;6.27;43.29
7335;BME280;3708;42.632;23.378;2023-02-02T03:59:32;94283.38;;;6.65;42.71
7335;BME280;3708;42.632;23.378;2023-02-02T04:01:59;94284.91;;;6.66;42.82
7335;BME280;3708;42.632;23.378;2023-02-02T04:04:26;94296.75;;;6.72;42.76
7335;BME280;3708;42.632;23.378;2023-02-02T04:06:52;94280.81;;;7.10;42.25
7335;BME280;3708;42.632;23.378;2023-02-02T04:09:19;94286.56;;;6.98;42.26
7335;BME280;3708;42.632;23.378;2023-02-02T04:11:47;94286.63;;;7.07;43.00
7335;BME280;3708;42.632;23.378;2023-02-02T04:14:14;94300.72;;;6.70;42.62
7335;BME280;3708;42.632;23.378;2023-02-02T04:16:41;94290.22;;;6.75;43.91
7335;BME280;3708;42.632;23.378;2023-02-02T04:19:08;94295.13;;;6.76;44.03
7335;BME280;3708;42.632;23.378;2023-02-02T04:21:37;94295.16;;;6.99;43.27
7335;BME280;3708;42.632;23.378;2023-02-02T04:24:05;94307.78;;;7.05;43.35
7335;BME280;3708;42.632;23.378;2023-02-02T04:26:32;94300.44;;;7.07;43.67
7335;BME280;3708;42.632;23.378;2023-02-02T04:29:00;94301.81;;;5.87;45.72
7335;BME280;3708;42.632;23.378;2023-02-02T04:31:27;94309.31;;;6.43;44.88
7335;BME280;3708;42.632;23.378;2023-02-02T04:33:54;94296.53;;;6.82;43.56
7335;BME280;3708;42.632;23.378;2023-02-02T04:36:21;94314.53;;;6.16;45.03
7335;BME280;3708;42.632;23.378;2023-02-02T04:38:48;94301.34;;;6.53;44.61
7335;BME280;3708;42.632;23.378;2023-02-02T04:41:15;94292.03;;;6.74;44.12
7335;BME280;3708;42.632;23.378;2023-02-02T04:43:43;94292.63;;;6.58;44.79
7335;BME280;3708;42.632;23.378;2023-02-02T04:46:12;94299.84;;;6.74;44.28
7335;BME280;3708;42.632;23.378;2023-02-02T04:48:40;94310.28;;;6.47;45.10
7335;BME280;3708;42.632;23.378;2023-02-02T04:51:08;94319.91;;;6.60;45.13
7335;BME280;3708;42.632;23.378;2023-02-02T04:53:35;94315.59;;;6.29;45.15
7335;BME280;3708;42.632;23.378;2023-02-02T04:56:06;94319.53;;;6.53;45.18
7335;BME280;3708;42.632;23.378;2023-02-02T04:58:34;94316.44;;;6.65;44.54
7335;BME280;3708;42.632;23.378;2023-02-02T05:01:07;94311.25;;;6.24;45.22
7335;BME280;3708;42.632;23.378;2023-02-02T05:03:35;94315.00;;;6.45;45.24
7335;BME280;3708;42.632;23.378;2023-02-02T05:06:03;94318.41;;;5.73;43.91
7335;BME280;3708;42.632;23.378;2023-02-02T05:08:30;94315.72;;;5.78;44.04
7335;BME280;3708;42.632;23.378;2023-02-02T05:10:57;94306.53;;;6.53;43.78
7335;BME280;3708;42.632;23.378;2023-02-02T05:13:24;94313.56;;;6.39;43.33
7335;BME280;3708;42.632;23.378;2023-02-02T05:15:52;94314.69;;;6.74;42.89
7335;BME280;3708;42.632;23.378;2023-02-02T05:18:19;94301.28;;;6.80;42.61
7335;BME280;3708;42.632;23.378;2023-02-02T05:20:47;94303.41;;;6.78;42.48
7335;BME280;3708;42.632;23.378;2023-02-02T05:23:14;94306.81;;;5.84;43.65
7335;BME280;3708;42.632;23.378;2023-02-02T05:25:41;94312.69;;;6.57;42.66
7335;BME280;3708;42.632;23.378;2023-02-02T05:28:08;94318.25;;;5.51;42.37
7335;BME280;3708;42.632;23.378;2023-02-02T05:30:38;94307.28;;;5.86;42.67
7335;BME280;3708;42.632;23.378;2023-02-02T05:33:04;94302.03;;;6.32;42.29
7335;BME280;3708;42.632;23.378;2023-02-02T05:35:31;94313.91;;;6.73;40.95
7335;BME280;3708;42.632;23.378;2023-02-02T05:37:59;94315.63;;;6.91;41.47
7335;BME280;3708;42.632;23.378;2023-02-02T05:40:26;94318.22;;;6.91;40.46
7335;BME280;3708;42.632;23.378;2023-02-02T05:42:53;94328.19;;;6.62;42.84
7335;BME280;3708;42.632;23.378;2023-02-02T05:45:20;94314.53;;;6.16;44.82
7335;BME280;3708;42.632;23.378;2023-02-02T05:47:47;94318.38;;;6.32;44.55
7335;BME280;3708;42.632;23.378;2023-02-02T05:50:15;94320.88;;;6.24;45.04
7335;BME280;3708;42.632;23.378;2023-02-02T05:52:43;94338.16;;;5.23;47.64
7335;BME280;3708;42.632;23.378;2023-02-02T05:55:11;94338.16;;;5.23;48.75
7335;BME280;3708;42.632;23.378;2023-02-02T05:57:38;94330.72;;;5.16;48.83
7335;BME280;3708;42.632;23.378;2023-02-02T06:00:06;94335.94;;;5.16;49.77
7335;BME280;3708;42.632;23.378;2023-02-02T06:02:33;94337.53;;;5.31;49.08
7335;BME280;3708;42.632;23.378;2023-02-02T06:05:00;94340.22;;;5.26;49.65
7335;BME280;3708;42.632;23.378;2023-02-02T06:07:27;94341.81;;;5.40;49.50
7335;BME280;3708;42.632;23.378;2023-02-02T06:09:53;94331.81;;;5.15;50.43
7335;BME280;3708;42.632;23.378;2023-02-02T06:12:21;94354.31;;;5.38;49.89
7335;BME280;3708;42.632;23.378;2023-02-02T06:14:48;94349.81;;;5.25;49.67
7335;BME280;3708;42.632;23.378;2023-02-02T06:17:15;94347.06;;;5.35;50.15
7335;BME280;3708;42.632;23.378;2023-02-02T06:19:42;94354.84;;;5.35;50.32
7335;BME280;3708;42.632;23.378;2023-02-02T06:22:08;94343.56;;;5.26;50.26
7335;BME280;3708;42.632;23.378;2023-02-02T06:24:35;94348.91;;;5.16;50.66
7335;BME280;3708;42.632;23.378;2023-02-02T06:27:02;94371.34;;;5.07;51.15
7335;BME280;3708;42.632;23.378;2023-02-02T06:29:30;94365.53;;;4.97;51.84
7335;BME280;3708;42.632;23.378;2023-02-02T06:31:57;94383.09;;;5.23;50.76
7335;BME280;3708;42.632;23.378;2023-02-02T06:34:24;94373.25;;;5.39;50.87
7335;BME280;3708;42.632;23.378;2023-02-02T06:36:51;94371.91;;;5.41;51.00
7335;BME280;3708;42.632;23.378;2023-02-02T06:39:18;94381.22;;;5.61;50.23
7335;BME280;3708;42.632;23.378;2023-02-02T06:41:45;94369.81;;;5.76;50.29
7335;BME280;3708;42.632;23.378;2023-02-02T06:44:12;94378.00;;;5.83;49.47
7335;BME280;3708;42.632;23.378;2023-02-02T06:46:41;94388.41;;;5.83;49.79
7335;BME280;3708;42.632;23.378;2023-02-02T06:49:08;94388.09;;;6.03;49.80
7335;BME280;3708;42.632;23.378;2023-02-02T06:51:35;94373.69;;;6.24;49.53
7335;BME280;3708;42.632;23.378;2023-02-02T06:54:02;94386.41;;;6.12;49.13
7335;BME280;3708;42.632;23.378;2023-02-02T06:56:29;94380.03;;;6.18;48.94
7335;BME280;3708;42.632;23.378;2023-02-02T06:58:55;94377.94;;;6.34;48.69
7335;BME280;3708;42.632;23.378;2023-02-02T07:01:22;94373.66;;;6.10;48.58
7335;BME280;3708;42.632;23.378;2023-02-02T07:03:50;94404.06;;;5.96;48.89
7335;BME280;3708;42.632;23.378;2023-02-02T07:06:19;94406.78;;;6.05;49.57
7335;BME280;3708;42.632;23.378;2023-02-02T07:08:47;94399.59;;;6.15;49.36
7335;BME280;3708;42.632;23.378;2023-02-02T07:11:15;94402.22;;;6.29;48.93
7335;BME280;3708;42.632;23.378;2023-02-02T07:13:42;94408.09;;;5.89;49.80
7335;BME280;3708;42.632;23.378;2023-02-02T07:16:10;94397.06;;;5.97;49.47
7335;BME280;3708;42.632;23.378;2023-02-02T07:18:37;94391.38;;;6.08;49.57
7335;BME280;3708;42.632;23.378;2023-02-02T07:21:06;94387.84;;;6.18;49.67
7335;BME280;3708;42.632;23.378;2023-02-02T07:23:33;94394.31;;;6.34;48.97
7335;BME280;3708;42.632;23.378;2023-02-02T07:26:01;94398.69;;;6.06;50.02
7335;BME280;3708;42.632;23.378;2023-02-02T07:28:28;94400.66;;;6.28;48.98
7335;BME280;3708;42.632;23.378;2023-02-02T07:30:55;94402.00;;;6.12;49.78
7335;BME280;3708;42.632;23.378;2023-02-02T07:33:21;94409.22;;;6.15;49.44
7335;BME280;3708;42.632;23.378;2023-02-02T07:35:48;94402.22;;;6.29;49.11
7335;BME280;3708;42.632;23.378;2023-02-02T07:38:16;94412.41;;;6.26;48.69
7335;BME280;3708;42.632;23.378;2023-02-02T07:40:49;94402.00;;;6.26;49.10
7335;BME280;3708;42.632;23.378;2023-02-02T07:43:15;94411.53;;;6.17;48.72
7335;BME280;3708;42.632;23.378;2023-02-02T07:45:43;94405.41;;;5.94;49.20
7335;BME280;3708;42.632;23.378;2023-02-02T07:48:10;94397.66;;;6.21;48.47
7335;BME280;3708;42.632;23.378;2023-02-02T07:50:37;94390.28;;;6.42;48.22
7335;BME280;3708;42.632;23.378;2023-02-02T07:53:04;94384.19;;;6.33;47.99
7335;BME280;3708;42.632;23.378;2023-02-02T07:55:32;94371.00;;;6.70;47.46
7335;BME280;3708;42.632;23.378;2023-02-02T07:57:59;94375.50;;;6.78;47.46
7335;BME280;3708;42.632;23.378;2023-02-02T08:00:26;94365.72;;;7.11;46.63
7335;BME280;3708;42.632;23.378;2023-02-02T08:02:54;94359.00;;;6.96;46.80
7335;BME280;3708;42.632;23.378;2023-02-02T08:05:20;94353.53;;;7.20;45.73
7335;BME280;3708;42.632;23.378;2023-02-02T08:07:47;94358.16;;;7.23;46.16
7335;BME280;3708;42.632;23.378;2023-02-02T08:10:14;94359.03;;;7.54;45.36
7335;BME280;3708;42.632;23.378;2023-02-02T08:12:42;94346.56;;;7.73;45.38
7335;BME280;3708;42.632;23.378;2023-02-02T08:15:10;94340.56;;;7.95;45.21
7335;BME280;3708;42.632;23.378;2023-02-02T08:17:37;94337.00;;;8.21;45.10
7335;BME280;3708;42.632;23.378;2023-02-02T08:20:05;94337.00;;;8.21;45.23
7335;BME280;3708;42.632;23.378;2023-02-02T08:22:32;94346.63;;;8.34;44.48
7335;BME280;3708;42.632;23.378;2023-02-02T08:25:02;94349.25;;;8.12;45.15
7335;BME280;3708;42.632;23.378;2023-02-02T08:27:29;94339.31;;;8.54;43.96
7335;BME280;3708;42.632;23.378;2023-02-02T08:29:57;94341.50;;;8.69;43.69
7335;BME280;3708;42.632;23.378;2023-02-02T08:32:24;94342.09;;;8.66;43.24
7335;BME280;3708;42.632;23.378;2023-02-02T08:34:51;94332.44;;;8.75;43.11
7335;BME280;3708;42.632;23.378;2023-02-02T08:37:18;94344.56;;;8.71;42.75
7335;BME280;3708;42.632;23.378;2023-02-02T08:39:44;94336.31;;;8.86;43.45
7335;BME280;3708;42.632;23.378;2023-02-02T08:42:11;94341.53;;;8.86;43.19
7335;BME280;3708;42.632;23.378;2023-02-02T08:44:38;94339.53;;;8.91;43.50
7335;BME280;3708;42.632;23.378;2023-02-02T08:47:06;94338.50;;;9.09;43.05
7335;BME280;3708;42.632;23.378;2023-02-02T08:49:33;94334.03;;;9.10;42.95
7335;BME280;3708;42.632;23.378;2023-02-02T08:52:00;94336.03;;;9.13;43.37
7335;BME280;3708;42.632;23.378;2023-02-02T08:54:27;94329.34;;;8.64;44.27
7335;BME280;3708;42.632;23.378;2023-02-02T08:56:54;94335.94;;;8.62;44.95
7335;BME280;3708;42.632;23.378;2023-02-02T08:59:25;94337.19;;;8.73;44.53
7335;BME280;3708;42.632;23.378;2023-02-02T09:01:52;94332.94;;;9.11;43.92
7335;BME280;3708;42.632;23.378;2023-02-02T09:04:20;94325.88;;;9.20;43.17
7335;BME280;3708;42.632;23.378;2023-02-02T09:06:46;94329.28;;;9.20;43.10
7335;BME280;3708;42.632;23.378;2023-02-02T09:09:14;94320.19;;;9.18;42.93
7335;BME280;3708;42.632;23.378;2023-02-02T09:11:42;94331.13;;;9.37;42.74
7335;BME280;3708;42.632;23.378;2023-02-02T09:14:09;94336.66;;;9.44;42.42
7335;BME280;3708;42.632;23.378;2023-02-02T09:16:37;94327.25;;;9.43;42.18
7335;BME280;3708;42.632;23.378;2023-02-02T09:19:05;94319.25;;;9.65;41.99
7335;BME280;3708;42.632;23.378;2023-02-02T09:21:33;94316.47;;;9.79;41.83
7335;BME280;3708;42.632;23.378;2023-02-02T09:24:05;94316.31;;;9.58;41.70
7335;BME280;3708;42.632;23.378;2023-02-02T09:26:32;94294.00;;;9.69;41.58
7335;BME280;3708;42.632;23.378;2023-02-02T09:29:00;94317.25;;;9.45;41.67
7335;BME280;3708;42.632;23.378;2023-02-02T09:31:28;94306.97;;;9.57;41.66
7335;BME280;3708;42.632;23.378;2023-02-02T09:33:59;94311.97;;;9.88;41.43
7335;BME280;3708;42.632;23.378;2023-02-02T09:36:26;94319.72;;;10.22;40.84
7335;BME280;3708;42.632;23.378;2023-02-02T09:38:54;94302.63;;;10.25;40.35
7335;BME280;3708;42.632;23.378;2023-02-02T09:41:53;94296.09;;;10.48;40.43
7335;BME280;3708;42.632;23.378;2023-02-02T09:44:47;94300.38;;;10.44;40.90
7335;BME280;3708;42.632;23.378;2023-02-02T09:47:20;94284.22;;;10.71;40.15
7335;BME280;3708;42.632;23.378;2023-02-02T09:49:54;94277.75;;;10.48;40.04
7335;BME280;3708;42.632;23.378;2023-02-02T09:52:25;94277.78;;;10.39;40.16
7335;BME280;3708;42.632;23.378;2023-02-02T09:54:59;94274.44;;;10.30;40.33
7335;BME280;3708;42.632;23.378;2023-02-02T09:57:34;94275.22;;;10.22;40.61
7335;BME280;3708;42.632;23.378;2023-02-02T10:00:03;94275.38;;;10.26;40.89
7335;BME280;3708;42.632;23.378;2023-02-02T10:02:36;94285.09;;;10.54;40.12
7335;BME280;3708;42.632;23.378;2023-02-02T10:05:10;94267.88;;;10.74;39.42
7335;BME280;3708;42.632;23.378;2023-02-02T10:07:42;94259.19;;;11.03;39.32
7335;BME280;3708;42.632;23.378;2023-02-02T10:10:15;94256.81;;;11.10;38.87
7335;BME280;3708;42.632;23.378;2023-02-02T10:12:50;94261.47;;;11.04;39.12
7335;BME280;3708;42.632;23.378;2023-02-02T10:15:24;94262.59;;;11.03;39.40
7335;BME280;3708;42.632;23.378;2023-02-02T10:17:58;94250.38;;;11.07;39.40
7335;BME280;3708;42.632;23.378;2023-02-02T10:20:35;94243.31;;;11.20;39.03
7335;BME280;3708;42.632;23.378;2023-02-02T10:23:12;94240.19;;;11.26;38.47
7335;BME280;3708;42.632;23.378;2023-02-02T10:25:51;94234.75;;;11.31;37.77
7335;BME280;3708;42.632;23.378;2023-02-02T10:28:28;94230.09;;;11.49;37.64
7335;BME280;3708;42.632;23.378;2023-02-02T10:31:00;94238.56;;;11.67;37.34
7335;BME280;3708;42.632;23.378;2023-02-02T10:33:34;94233.91;;;11.51;37.77
7335;BME280;3708;42.632;23.378;2023-02-02T10:36:07;94233.91;;;11.84;36.93
7335;BME280;3708;42.632;23.378;2023-02-02T10:38:43;94225.72;;;12.10;35.88
7335;BME280;3708;42.632;23.378;2023-02-02T10:41:18;94233.28;;;12.23;35.35
7335;BME280;3708;42.632;23.378;2023-02-02T10:44:03;94218.44;;;12.79;34.75
7335;BME280;3708;42.632;23.378;2023-02-02T10:46:38;94216.88;;;12.90;34.36
7335;BME280;3708;42.632;23.378;2023-02-02T10:49:15;94206.94;;;13.51;33.77
7335;BME280;3708;42.632;23.378;2023-02-02T10:51:49;94205.03;;;12.96;31.54
7335;BME280;3708;42.632;23.378;2023-02-02T10:54:40;94190.66;;;11.58;32.61
7335;BME280;3708;42.632;23.378;2023-02-02T10:57:13;94185.38;;;11.33;33.39
7335;BME280;3708;42.632;23.378;2023-02-02T10:59:49;94192.69;;;11.40;33.66
7335;BME280;3708;42.632;23.378;2023-02-02T11:02:20;94166.09;;;11.62;33.46
7335;BME280;3708;42.632;23.378;2023-02-02T11:04:47;94177.69;;;11.28;33.90
7335;BME280;3708;42.632;23.378;2023-02-02T11:07:32;94174.66;;;11.95;32.45
7335;BME280;3708;42.632;23.378;2023-02-02T11:10:00;94170.09;;;11.47;33.31
7335;BME280;3708;42.632;23.378;2023-02-02T11:12:31;94166.94;;;10.56;33.94
7335;BME280;3708;42.632;23.378;2023-02-02T11:15:00;94152.97;;;10.23;34.78
7335;BME280;3708;42.632;23.378;2023-02-02T11:17:30;94171.53;;;10.09;35.03
7335;BME280;3708;42.632;23.378;2023-02-02T11:19:57;94164.81;;;10.70;34.49
7335;BME280;3708;42.632;23.378;2023-02-02T11:22:30;94147.81;;;11.09;34.25
7335;BME280;3708;42.632;23.378;2023-02-02T11:25:00;94129.66;;;10.50;34.09
7335;BME280;3708;42.632;23.378;2023-02-02T11:27:31;94167.94;;;10.63;34.16
7335;BME280;3708;42.632;23.378;2023-02-02T11:30:10;94150.81;;;10.25;35.13
7335;BME280;3708;42.632;23.378;2023-02-02T11:32:44;94135.34;;;11.63;33.22
7335;BME280;3708;42.632;23.378;2023-02-02T11:35:18;94126.78;;;11.29;33.00
7335;BME280;3708;42.632;23.378;2023-02-02T11:37:57;94130.09;;;11.63;32.35
7335;BME280;3708;42.632;23.378;2023-02-02T11:40:31;94128.31;;;11.18;33.49
7335;BME280;3708;42.632;23.378;2023-02-02T11:43:03;94112.81;;;11.37;32.62
7335;BME280;3708;42.632;23.378;2023-02-02T11:45:33;94123.97;;;11.59;31.99
7335;BME280;3708;42.632;23.378;2023-02-02T11:48:04;94110.94;;;11.26;33.01
7335;BME280;3708;42.632;23.378;2023-02-02T11:50:32;94118.94;;;12.26;31.23
7335;BME280;3708;42.632;23.378;2023-02-02T11:52:59;94098.75;;;12.54;30.60
7335;BME280;3708;42.632;23.378;2023-02-02T11:55:28;94112.47;;;11.39;31.95
7335;BME280;3708;42.632;23.378;2023-02-02T11:58:22;94105.00;;;11.74;31.42
7335;BME280;3708;42.632;23.378;2023-02-02T12:00:57;94100.88;;;10.83;32.36
7335;BME280;3708;42.632;23.378;2023-02-02T12:03:30;94122.19;;;11.14;31.69
7335;BME280;3708;42.632;23.378;2023-02-02T12:05:57;94087.22;;;11.22;31.63
7335;BME280;3708;42.632;23.378;2023-02-02T12:08:27;94110.63;;;11.27;31.42
7335;BME280;3708;42.632;23.378;2023-02-02T12:10:57;94103.88;;;11.38;31.85
7335;BME280;3708;42.632;23.378;2023-02-02T12:13:46;94083.03;;;10.97;32.44
7335;BME280;3708;42.632;23.378;2023-02-02T12:16:23;94105.06;;;10.84;32.26
7335;BME280;3708;42.632;23.378;2023-02-02T12:21:49;94086.53;;;11.70;31.62
7335;BME280;3708;42.632;23.378;2023-02-02T12:24:28;94093.16;;;12.04;31.31
7335;BME280;3708;42.632;23.378;2023-02-02T12:27:10;94116.56;;;10.09;33.24
7335;BME280;3708;42.632;23.378;2023-02-02T12:29:51;94109.31;;;10.35;34.28
7335;BME280;3708;42.632;23.378;2023-02-02T12:32:27;94109.22;;;9.73;35.96
7335;BME280;3708;42.632;23.378;2023-02-02T12:35:15;94083.97;;;10.48;35.09
7335;BME280;3708;42.632;23.378;2023-02-02T12:37:52;94084.81;;;10.72;33.93
7335;BME280;3708;42.632;23.378;2023-02-02T12:40:37;94108.41;;;10.11;33.30
7335;BME280;3708;42.632;23.378;2023-02-02T12:43:19;94103.38;;;10.47;33.10
7335;BME280;3708;42.632;23.378;2023-02-02T12:46:02;94114.69;;;10.10;33.02
7335;BME280;3708;42.632;23.378;2023-02-02T12:48:41;94101.28;;;9.90;33.52
7335;BME280;3708;42.632;23.378;2023-02-02T12:51:26;94086.28;;;9.99;33.70
7335;BME280;3708;42.632;23.378;2023-02-02T12:54:11;94095.75;;;9.83;33.92
7335;BME280;3708;42.632;23.378;2023-02-02T12:56:45;94093.88;;;9.92;33.53
7335;BME280;3708;42.632;23.378;2023-02-02T12:59:25;94095.22;;;9.98;34.14
7335;BME280;3708;42.632;23.378;2023-02-02T13:02:03;94092.63;;;10.40;33.62
7335;BME280;3708;42.632;23.378;2023-02-02T13:04:52;94092.69;;;9.81;34.23
7335;BME280;3708;42.632;23.378;2023-02-02T13:07:31;94086.19;;;10.58;33.78
7335;BME280;3708;42.632;23.378;2023-02-02T13:10:13;94091.75;;;10.56;33.80
7335;BME280;3708;42.632;23.378;2023-02-02T13:12:45;94082.84;;;11.14;33.19
7335;BME280;3708;42.632;23.378;2023-02-02T13:15:17;94089.94;;;10.48;33.89
7335;BME280;3708;42.632;23.378;2023-02-02T13:17:50;94094.88;;;10.50;33.83
7335;BME280;3708;42.632;23.378;2023-02-02T13:20:27;94088.84;;;10.70;33.43
7335;BME280;3708;42.632;23.378;2023-02-02T13:23:00;94089.88;;;10.90;33.07
7335;BME280;3708;42.632;23.378;2023-02-02T13:25:33;94084.13;;;11.77;31.88
7335;BME280;3708;42.632;23.378;2023-02-02T13:28:03;94095.09;;;11.22;32.68
7335;BME280;3708;42.632;23.378;2023-02-02T13:30:35;94096.28;;;10.27;33.96
7335;BME280;3708;42.632;23.378;2023-02-02T13:33:06;94092.50;;;10.57;34.01
7335;BME280;3708;42.632;23.378;2023-02-02T13:35:41;94111.22;;;10.47;32.81
7335;BME280;3708;42.632;23.378;2023-02-02T13:38:15;94101.84;;;10.25;33.45
7335;BME280;3708;42.632;23.378;2023-02-02T13:40:46;94097.94;;;9.81;33.71
7335;BME280;3708;42.632;23.378;2023-02-02T13:46:23;94102.28;;;9.48;34.44
7335;BME280;3708;42.632;23.378;2023-02-02T13:48:57;94093.25;;;9.66;34.04
7335;BME280;3708;42.632;23.378;2023-02-02T13:51:42;94088.38;;;9.56;34.50
7335;BME280;3708;42.632;23.378;2023-02-02T13:57:47;94104.31;;;9.34;34.70